Decoded Metar for YAYE (AYERS ROCK in _UNIDENTIFIED) (IATA:N/A) | Meteo·Mobile Aviation Weather
aviador You're here:

YAYE Decoded Metar

AYERS ROCK in _UNIDENTIFIED
Report Time2018-12-18 16:00:00
UTC Time2018-12-18 16:48:16
Flight Rules vfr VFR
Wind210° at 11 kt
W.Decomp.*RWY 13: 2.7 kt HW 10.7 kt RCW
W.Rank210° ranks 17
Current wind is above 210° avg. (7.3)
Visibility9999 m
Phenomena:N/A
Clouds:N/A
Expected CloudBase > 9,600 ft AGL from Temp-Dew spread
CeilingNone
Temp28°C (ISA +16)
Dew Point04°C (21% RH)
Heat Index26.8°C
AAT22.6°C
QNH1007 hPa
Density Alt3,802 ft
Elevation1,627 ft
Report Wrong Elevation
Raw Report
YAYE 181600Z AUTO 21011KT 9999 // NCD 28/04 Q1007=

Extra information for YAYE:More info

Metar Taf Metar & Taf Last 4 Metars F.Rules Stats Wind Profile Meteogram Temp Stats Airport Information Weather charts Add Link Nearby VenuesMetar ALERT Operation Metar Decoded Social comments